Owensboro-Daviess County Regional (OWB)

 

Airport Diagram
Current Weather/Forecast (IFR Conditions)
METAR KOWB 251656Z 01008KT 3SM RA BR OVC006 04/04 A2981 RMK AO2 SLP098 P0007 T00440044
TAF KOWB 251708Z 2517/2612 07010KT 3SM RA BR OVC006 FM251900 08011G19KT 3SM RA BR VCTS OVC005CB FM260000 11009KT 3SM BR VCSH OVC003 FM260500 22006KT 4SM BR OVC003

Airport Information

All Charts
General
Chart Name View
AIRPORT DIAGRAM
AIRPORT DIAGRAM
TAKEOFF MINIMUMS
ALTERNATE MINIMUMS
TAKEOFF MINIMUMS
ALTERNATE MINIMUMS
HOT SPOT
HOT SPOT

Approaches
Chart Name Download
ILS OR LOC RWY 36
RNAV (GPS) RWY 06
RNAV (GPS) RWY 18
RNAV (GPS) RWY 24
RNAV (GPS) RWY 36
VOR RWY 06
VOR RWY 18
VOR RWY 36
ILS OR LOC RWY 36
RNAV (GPS) RWY 06
RNAV (GPS) RWY 18
RNAV (GPS) RWY 24
RNAV (GPS) RWY 36
VOR RWY 06
VOR RWY 18
VOR RWY 36


Airport Statistics
Departures Arrivals Local
All Collected Stats since June 2016: 40 40 0
2021 Stats: 2 2 0
January Stats: 2 2 0

Inbound Traffic (Arrivals) - 0

No inbound traffic.


Outbound Traffic (Departures) - 0

No outbound traffic.


Local Traffic (Pattern) - 0

No local traffic.